sensor_id;sensor_type;location;lat;lon;timestamp;pressure;altitude;pressure_sealevel;temperature;humidity
43553;BME280;29153;42.696;23.218;2023-04-25T00:00:34;93683.23;;;10.02;100.00
43553;BME280;29153;42.696;23.218;2023-04-25T00:03:02;93677.91;;;10.05;100.00
43553;BME280;29153;42.696;23.218;2023-04-25T00:05:31;93664.23;;;10.00;100.00
43553;BME280;29153;42.696;23.218;2023-04-25T00:07:59;93650.22;;;10.16;100.00
43553;BME280;29153;42.696;23.218;2023-04-25T00:10:26;93643.55;;;10.02;100.00
43553;BME280;29153;42.696;23.218;2023-04-25T00:12:54;93638.76;;;10.04;100.00
43553;BME280;29153;42.696;23.218;2023-04-25T00:15:21;93638.50;;;10.03;100.00
43553;BME280;29153;42.696;23.218;2023-04-25T00:17:50;93644.72;;;9.96;100.00
43553;BME280;29153;42.696;23.218;2023-04-25T00:20:19;93644.55;;;9.90;100.00
43553;BME280;29153;42.696;23.218;2023-04-25T00:22:46;93643.87;;;9.98;100.00
43553;BME280;29153;42.696;23.218;2023-04-25T00:25:14;93646.05;;;9.96;100.00
43553;BME280;29153;42.696;23.218;2023-04-25T00:27:41;93661.86;;;9.99;100.00
43553;BME280;29153;42.696;23.218;2023-04-25T00:30:09;93683.62;;;9.96;100.00
43553;BME280;29153;42.696;23.218;2023-04-25T00:32:37;93678.48;;;9.86;100.00
43553;BME280;29153;42.696;23.218;2023-04-25T00:35:05;93678.35;;;9.93;100.00
43553;BME280;29153;42.696;23.218;2023-04-25T00:37:32;93675.23;;;9.91;100.00
43553;BME280;29153;42.696;23.218;2023-04-25T00:40:00;93673.52;;;9.98;100.00
43553;BME280;29153;42.696;23.218;2023-04-25T00:42:29;93675.23;;;9.91;100.00
43553;BME280;29153;42.696;23.218;2023-04-25T00:44:55;93687.08;;;9.78;100.00
43553;BME280;29153;42.696;23.218;2023-04-25T00:47:24;93666.12;;;9.81;100.00
43553;BME280;29153;42.696;23.218;2023-04-25T00:49:52;93667.36;;;9.70;100.00
43553;BME280;29153;42.696;23.218;2023-04-25T00:52:20;93663.73;;;9.66;100.00
43553;BME280;29153;42.696;23.218;2023-04-25T00:54:47;93661.56;;;9.68;100.00
43553;BME280;29153;42.696;23.218;2023-04-25T00:57:15;93653.23;;;9.77;100.00
43553;BME280;29153;42.696;23.218;2023-04-25T00:59:45;93632.39;;;9.89;100.00
43553;BME280;29153;42.696;23.218;2023-04-25T01:02:16;93625.52;;;9.88;100.00
43553;BME280;29153;42.696;23.218;2023-04-25T01:04:43;93635.11;;;9.84;100.00
43553;BME280;29153;42.696;23.218;2023-04-25T01:07:11;93629.83;;;9.84;100.00
43553;BME280;29153;42.696;23.218;2023-04-25T01:09:39;93636.22;;;9.83;100.00
43553;BME280;29153;42.696;23.218;2023-04-25T01:12:07;93630.02;;;9.74;100.00
43553;BME280;29153;42.696;23.218;2023-04-25T01:14:34;93628.77;;;9.69;100.00
43553;BME280;29153;42.696;23.218;2023-04-25T01:17:02;93630.83;;;9.56;100.00
43553;BME280;29153;42.696;23.218;2023-04-25T01:19:30;93630.75;;;9.61;100.00
43553;BME280;29153;42.696;23.218;2023-04-25T01:21:57;93626.51;;;9.63;100.00
43553;BME280;29153;42.696;23.218;2023-04-25T01:24:25;93625.20;;;9.60;100.00
43553;BME280;29153;42.696;23.218;2023-04-25T01:26:54;93615.88;;;9.49;100.00
43553;BME280;29153;42.696;23.218;2023-04-25T01:29:23;93633.59;;;9.48;100.00
43553;BME280;29153;42.696;23.218;2023-04-25T01:31:52;93632.22;;;9.51;100.00
43553;BME280;29153;42.696;23.218;2023-04-25T01:34:21;93626.99;;;9.30;100.00
43553;BME280;29153;42.696;23.218;2023-04-25T01:36:49;93623.75;;;9.17;100.00
43553;BME280;29153;42.696;23.218;2023-04-25T01:39:18;93627.95;;;8.99;100.00
43553;BME280;29153;42.696;23.218;2023-04-25T01:41:49;93636.44;;;8.98;100.00
43553;BME280;29153;42.696;23.218;2023-04-25T01:44:17;93635.86;;;9.01;100.00
43553;BME280;29153;42.696;23.218;2023-04-25T01:46:44;93642.14;;;9.05;100.00
43553;BME280;29153;42.696;23.218;2023-04-25T01:49:12;93637.13;;;9.04;100.00
43553;BME280;29153;42.696;23.218;2023-04-25T01:51:39;93629.74;;;9.03;100.00
43553;BME280;29153;42.696;23.218;2023-04-25T01:54:08;93633.02;;;8.95;100.00
43553;BME280;29153;42.696;23.218;2023-04-25T01:56:37;93630.91;;;8.95;100.00
43553;BME280;29153;42.696;23.218;2023-04-25T01:59:05;93638.05;;;8.94;100.00
43553;BME280;29153;42.696;23.218;2023-04-25T02:01:33;93636.98;;;8.95;100.00
43553;BME280;29153;42.696;23.218;2023-04-25T02:04:01;93640.73;;;8.92;100.00
43553;BME280;29153;42.696;23.218;2023-04-25T02:06:28;93633.39;;;8.89;100.00
43553;BME280;29153;42.696;23.218;2023-04-25T02:08:57;93627.00;;;8.92;100.00
43553;BME280;29153;42.696;23.218;2023-04-25T02:11:24;93620.98;;;8.87;100.00
43553;BME280;29153;42.696;23.218;2023-04-25T02:13:52;93628.06;;;8.91;100.00
43553;BME280;29153;42.696;23.218;2023-04-25T02:16:19;93615.45;;;8.86;100.00
43553;BME280;29153;42.696;23.218;2023-04-25T02:18:47;93617.94;;;8.77;100.00
43553;BME280;29153;42.696;23.218;2023-04-25T02:21:14;93606.52;;;8.84;100.00
43553;BME280;29153;42.696;23.218;2023-04-25T02:23:42;93561.88;;;8.45;100.00
43553;BME280;29153;42.696;23.218;2023-04-25T02:26:11;93609.91;;;8.66;100.00
43553;BME280;29153;42.696;23.218;2023-04-25T02:28:39;93599.09;;;8.65;100.00
43553;BME280;29153;42.696;23.218;2023-04-25T02:31:07;93599.72;;;8.57;100.00
43553;BME280;29153;42.696;23.218;2023-04-25T02:33:34;93597.14;;;8.52;100.00
43553;BME280;29153;42.696;23.218;2023-04-25T02:36:02;93596.55;;;8.57;100.00
43553;BME280;29153;42.696;23.218;2023-04-25T02:38:29;93581.83;;;8.54;100.00
43553;BME280;29153;42.696;23.218;2023-04-25T02:40:57;93587.59;;;8.56;100.00
43553;BME280;29153;42.696;23.218;2023-04-25T02:43:24;93552.97;;;8.39;100.00
43553;BME280;29153;42.696;23.218;2023-04-25T02:45:52;93582.87;;;8.55;100.00
43553;BME280;29153;42.696;23.218;2023-04-25T02:48:19;93574.70;;;8.52;100.00
43553;BME280;29153;42.696;23.218;2023-04-25T02:50:47;93572.17;;;8.44;100.00
43553;BME280;29153;42.696;23.218;2023-04-25T02:53:14;93569.59;;;8.39;100.00
43553;BME280;29153;42.696;23.218;2023-04-25T02:55:42;93581.92;;;8.46;100.00
43553;BME280;29153;42.696;23.218;2023-04-25T02:58:09;93572.02;;;8.36;100.00
43553;BME280;29153;42.696;23.218;2023-04-25T03:00:37;93578.87;;;8.37;100.00
43553;BME280;29153;42.696;23.218;2023-04-25T03:03:04;93568.84;;;8.36;100.00
43553;BME280;29153;42.696;23.218;2023-04-25T03:05:32;93563.64;;;8.26;100.00
43553;BME280;29153;42.696;23.218;2023-04-25T03:07:59;93571.05;;;8.29;100.00
43553;BME280;29153;42.696;23.218;2023-04-25T03:10:27;93566.27;;;8.29;100.00
43553;BME280;29153;42.696;23.218;2023-04-25T03:12:54;93561.72;;;8.37;100.00
43553;BME280;29153;42.696;23.218;2023-04-25T03:15:22;93552.00;;;8.53;100.00
43553;BME280;29153;42.696;23.218;2023-04-25T03:17:49;93543.14;;;8.84;100.00
43553;BME280;29153;42.696;23.218;2023-04-25T03:20:17;93546.05;;;9.01;100.00
43553;BME280;29153;42.696;23.218;2023-04-25T03:22:44;93543.93;;;9.20;100.00
43553;BME280;29153;42.696;23.218;2023-04-25T03:25:12;93537.66;;;9.32;100.00
43553;BME280;29153;42.696;23.218;2023-04-25T03:27:39;93541.20;;;9.41;100.00
43553;BME280;29153;42.696;23.218;2023-04-25T03:30:07;93541.61;;;9.48;100.00
43553;BME280;29153;42.696;23.218;2023-04-25T03:32:35;93543.84;;;9.57;100.00
43553;BME280;29153;42.696;23.218;2023-04-25T03:35:03;93541.11;;;9.62;100.00
43553;BME280;29153;42.696;23.218;2023-04-25T03:37:31;93528.56;;;9.54;100.00
43553;BME280;29153;42.696;23.218;2023-04-25T03:39:58;93550.59;;;9.79;100.00
43553;BME280;29153;42.696;23.218;2023-04-25T03:42:25;93546.91;;;9.78;100.00
43553;BME280;29153;42.696;23.218;2023-04-25T03:44:53;93544.43;;;9.84;100.00
43553;BME280;29153;42.696;23.218;2023-04-25T03:47:20;93542.32;;;9.83;100.00
43553;BME280;29153;42.696;23.218;2023-04-25T03:49:48;93536.05;;;10.06;100.00
43553;BME280;29153;42.696;23.218;2023-04-25T03:52:17;93536.05;;;10.06;100.00
43553;BME280;29153;42.696;23.218;2023-04-25T03:54:46;93543.52;;;10.04;100.00
43553;BME280;29153;42.696;23.218;2023-04-25T03:57:13;93550.64;;;10.20;100.00
43553;BME280;29153;42.696;23.218;2023-04-25T03:59:41;93561.52;;;10.32;100.00
43553;BME280;29153;42.696;23.218;2023-04-25T04:02:08;93564.25;;;10.27;100.00
43553;BME280;29153;42.696;23.218;2023-04-25T04:04:36;93563.28;;;10.37;100.00
43553;BME280;29153;42.696;23.218;2023-04-25T04:07:04;93568.73;;;10.43;100.00
43553;BME280;29153;42.696;23.218;2023-04-25T04:09:31;93563.25;;;10.39;100.00
43553;BME280;29153;42.696;23.218;2023-04-25T04:11:59;93554.08;;;10.48;100.00
43553;BME280;29153;42.696;23.218;2023-04-25T04:14:28;93560.87;;;10.52;100.00
43553;BME280;29153;42.696;23.218;2023-04-25T04:16:56;93552.67;;;10.64;100.00
43553;BME280;29153;42.696;23.218;2023-04-25T04:19:23;93550.49;;;10.66;100.00
43553;BME280;29153;42.696;23.218;2023-04-25T04:21:51;93547.22;;;10.83;100.00
43553;BME280;29153;42.696;23.218;2023-04-25T04:24:18;93545.75;;;10.90;100.00
43553;BME280;29153;42.696;23.218;2023-04-25T04:26:46;93543.67;;;10.87;100.00
43553;BME280;29153;42.696;23.218;2023-04-25T04:29:13;93544.96;;;10.90;100.00
43553;BME280;29153;42.696;23.218;2023-04-25T04:31:42;93544.07;;;10.94;100.00
43553;BME280;29153;42.696;23.218;2023-04-25T04:34:10;93543.82;;;11.05;100.00
43553;BME280;29153;42.696;23.218;2023-04-25T04:36:38;93547.44;;;10.98;100.00
43553;BME280;29153;42.696;23.218;2023-04-25T04:39:07;93555.64;;;10.99;100.00
43553;BME280;29153;42.696;23.218;2023-04-25T04:41:35;93547.55;;;10.92;100.00
43553;BME280;29153;42.696;23.218;2023-04-25T04:44:03;93562.58;;;10.83;100.00
43553;BME280;29153;42.696;23.218;2023-04-25T04:46:30;93570.17;;;10.87;100.00
43553;BME280;29153;42.696;23.218;2023-04-25T04:48:58;93576.44;;;10.91;100.00
43553;BME280;29153;42.696;23.218;2023-04-25T04:51:25;93572.97;;;10.93;100.00
43553;BME280;29153;42.696;23.218;2023-04-25T04:53:53;93580.91;;;10.93;100.00
43553;BME280;29153;42.696;23.218;2023-04-25T04:56:22;93579.16;;;10.89;100.00
43553;BME280;29153;42.696;23.218;2023-04-25T04:58:51;93575.66;;;10.66;100.00
43553;BME280;29153;42.696;23.218;2023-04-25T05:01:19;93573.89;;;10.62;100.00
43553;BME280;29153;42.696;23.218;2023-04-25T05:03:46;93584.45;;;10.50;100.00
43553;BME280;29153;42.696;23.218;2023-04-25T05:06:14;93587.17;;;10.48;100.00
43553;BME280;29153;42.696;23.218;2023-04-25T05:08:41;93587.48;;;10.44;100.00
43553;BME280;29153;42.696;23.218;2023-04-25T05:11:09;93591.42;;;10.33;100.00
43553;BME280;29153;42.696;23.218;2023-04-25T05:13:36;93593.22;;;10.62;100.00
43553;BME280;29153;42.696;23.218;2023-04-25T05:16:04;93607.84;;;10.73;100.00
43553;BME280;29153;42.696;23.218;2023-04-25T05:18:31;93608.66;;;10.85;100.00
43553;BME280;29153;42.696;23.218;2023-04-25T05:20:59;93611.73;;;10.89;100.00
43553;BME280;29153;42.696;23.218;2023-04-25T05:23:26;93604.33;;;10.89;100.00
43553;BME280;29153;42.696;23.218;2023-04-25T05:25:55;93601.84;;;10.81;100.00
43553;BME280;29153;42.696;23.218;2023-04-25T05:28:23;93588.26;;;10.96;100.00
43553;BME280;29153;42.696;23.218;2023-04-25T05:30:50;93590.09;;;10.99;100.00
43553;BME280;29153;42.696;23.218;2023-04-25T05:33:19;93590.09;;;10.99;100.00
43553;BME280;29153;42.696;23.218;2023-04-25T05:35:46;93591.77;;;10.94;100.00
43553;BME280;29153;42.696;23.218;2023-04-25T05:38:16;93585.75;;;11.03;100.00
43553;BME280;29153;42.696;23.218;2023-04-25T05:40:43;93585.11;;;11.19;100.00
43553;BME280;29153;42.696;23.218;2023-04-25T05:43:10;93592.28;;;11.30;100.00
43553;BME280;29153;42.696;23.218;2023-04-25T05:45:38;93587.84;;;11.28;100.00
43553;BME280;29153;42.696;23.218;2023-04-25T05:48:05;93584.59;;;11.42;100.00
43553;BME280;29153;42.696;23.218;2023-04-25T05:50:33;93588.55;;;11.64;100.00
43553;BME280;29153;42.696;23.218;2023-04-25T05:53:00;93580.23;;;11.68;100.00
43553;BME280;29153;42.696;23.218;2023-04-25T05:55:28;93586.19;;;11.76;100.00
43553;BME280;29153;42.696;23.218;2023-04-25T05:57:56;93583.68;;;11.91;100.00
43553;BME280;29153;42.696;23.218;2023-04-25T06:00:23;93515.29;;;11.46;100.00
43553;BME280;29153;42.696;23.218;2023-04-25T06:02:51;93589.62;;;12.08;100.00
43553;BME280;29153;42.696;23.218;2023-04-25T06:05:19;93589.62;;;12.08;100.00
43553;BME280;29153;42.696;23.218;2023-04-25T06:07:47;93590.32;;;12.22;100.00
43553;BME280;29153;42.696;23.218;2023-04-25T06:10:14;93595.29;;;12.35;100.00
43553;BME280;29153;42.696;23.218;2023-04-25T06:12:42;93595.88;;;12.23;100.00
43553;BME280;29153;42.696;23.218;2023-04-25T06:15:11;93596.20;;;12.30;100.00
43553;BME280;29153;42.696;23.218;2023-04-25T06:17:38;93592.21;;;12.50;100.00
43553;BME280;29153;42.696;23.218;2023-04-25T06:20:07;93593.05;;;12.67;99.92
43553;BME280;29153;42.696;23.218;2023-04-25T06:22:35;93593.05;;;12.67;99.92
43553;BME280;29153;42.696;23.218;2023-04-25T06:25:02;93597.69;;;12.73;100.00
43553;BME280;29153;42.696;23.218;2023-04-25T06:27:30;93601.19;;;12.99;100.00
43553;BME280;29153;42.696;23.218;2023-04-25T06:29:58;93599.59;;;13.27;100.00
43553;BME280;29153;42.696;23.218;2023-04-25T06:32:25;93602.10;;;13.40;98.40
43553;BME280;29153;42.696;23.218;2023-04-25T06:34:54;93595.20;;;13.56;99.34
43553;BME280;29153;42.696;23.218;2023-04-25T06:37:22;93554.36;;;13.52;95.71
43553;BME280;29153;42.696;23.218;2023-04-25T06:39:50;93600.34;;;13.87;92.76
43553;BME280;29153;42.696;23.218;2023-04-25T06:42:17;93603.27;;;13.80;94.62
43553;BME280;29153;42.696;23.218;2023-04-25T06:44:45;93607.02;;;13.79;93.48
43553;BME280;29153;42.696;23.218;2023-04-25T06:47:12;93607.66;;;13.76;89.93
43553;BME280;29153;42.696;23.218;2023-04-25T06:49:40;93606.47;;;13.79;87.11
43553;BME280;29153;42.696;23.218;2023-04-25T06:52:08;93613.13;;;13.79;89.30
43553;BME280;29153;42.696;23.218;2023-04-25T06:54:37;93605.36;;;13.89;89.33
43553;BME280;29153;42.696;23.218;2023-04-25T06:57:04;93612.98;;;13.58;86.97
43553;BME280;29153;42.696;23.218;2023-04-25T06:59:31;93612.98;;;13.58;86.97
43553;BME280;29153;42.696;23.218;2023-04-25T07:01:59;93608.84;;;13.46;84.00
43553;BME280;29153;42.696;23.218;2023-04-25T07:04:27;93616.97;;;13.33;86.41
43553;BME280;29153;42.696;23.218;2023-04-25T07:06:54;93606.73;;;13.37;88.08
43553;BME280;29153;42.696;23.218;2023-04-25T07:09:22;93625.98;;;13.34;87.61
43553;BME280;29153;42.696;23.218;2023-04-25T07:11:49;93625.98;;;13.34;87.61
43553;BME280;29153;42.696;23.218;2023-04-25T07:14:17;93621.05;;;13.30;88.09
43553;BME280;29153;42.696;23.218;2023-04-25T07:16:44;93622.69;;;13.37;87.22
43553;BME280;29153;42.696;23.218;2023-04-25T07:19:12;93617.52;;;13.49;88.31
43553;BME280;29153;42.696;23.218;2023-04-25T07:21:39;93607.27;;;13.54;90.66
43553;BME280;29153;42.696;23.218;2023-04-25T07:24:07;93606.80;;;13.78;91.64
43553;BME280;29153;42.696;23.218;2023-04-25T07:26:34;93605.20;;;13.94;90.88
43553;BME280;29153;42.696;23.218;2023-04-25T07:29:02;93604.00;;;14.06;89.46
43553;BME280;29153;42.696;23.218;2023-04-25T07:31:29;93599.94;;;14.32;89.30
43553;BME280;29153;42.696;23.218;2023-04-25T07:33:57;93595.77;;;14.45;87.44
43553;BME280;29153;42.696;23.218;2023-04-25T07:36:24;93598.77;;;14.35;87.19
43553;BME280;29153;42.696;23.218;2023-04-25T07:38:53;93599.25;;;14.52;87.52
43553;BME280;29153;42.696;23.218;2023-04-25T07:41:21;93595.75;;;14.83;86.93
43553;BME280;29153;42.696;23.218;2023-04-25T07:43:48;93594.09;;;15.20;86.39
43553;BME280;29153;42.696;23.218;2023-04-25T07:46:16;93600.88;;;15.38;83.35
43553;BME280;29153;42.696;23.218;2023-04-25T07:48:44;93605.14;;;15.45;83.22
43553;BME280;29153;42.696;23.218;2023-04-25T07:51:11;93595.97;;;15.76;80.02
43553;BME280;29153;42.696;23.218;2023-04-25T07:53:39;93603.93;;;15.64;78.85
43553;BME280;29153;42.696;23.218;2023-04-25T07:56:07;93597.58;;;15.83;78.90
43553;BME280;29153;42.696;23.218;2023-04-25T07:58:35;93595.66;;;15.83;78.54
43553;BME280;29153;42.696;23.218;2023-04-25T08:01:03;93594.45;;;16.20;75.63
43553;BME280;29153;42.696;23.218;2023-04-25T08:03:30;93597.77;;;16.74;74.37
43553;BME280;29153;42.696;23.218;2023-04-25T08:05:58;93587.73;;;17.07;73.31
43553;BME280;29153;42.696;23.218;2023-04-25T08:08:25;93601.88;;;17.32;70.47
43553;BME280;29153;42.696;23.218;2023-04-25T08:10:53;93589.88;;;17.94;69.52
43553;BME280;29153;42.696;23.218;2023-04-25T08:13:20;93595.06;;;18.08;69.24
43553;BME280;29153;42.696;23.218;2023-04-25T08:15:47;93593.64;;;18.27;69.71
43553;BME280;29153;42.696;23.218;2023-04-25T08:18:15;93591.18;;;18.81;68.32
43553;BME280;29153;42.696;23.218;2023-04-25T08:20:43;93598.83;;;18.88;64.08
43553;BME280;29153;42.696;23.218;2023-04-25T08:23:10;93601.76;;;18.52;66.35
43553;BME280;29153;42.696;23.218;2023-04-25T08:25:38;93597.13;;;17.93;63.98
43553;BME280;29153;42.696;23.218;2023-04-25T08:28:06;93583.56;;;17.80;67.30
43553;BME280;29153;42.696;23.218;2023-04-25T08:30:32;93589.90;;;17.42;68.43
43553;BME280;29153;42.696;23.218;2023-04-25T08:33:00;93591.11;;;17.50;69.57
43553;BME280;29153;42.696;23.218;2023-04-25T08:35:27;93596.34;;;17.71;70.39
43553;BME280;29153;42.696;23.218;2023-04-25T08:37:55;93591.66;;;17.96;66.11
43553;BME280;29153;42.696;23.218;2023-04-25T08:40:23;93591.53;;;18.42;67.83
43553;BME280;29153;42.696;23.218;2023-04-25T08:42:54;93593.95;;;18.84;66.22
43553;BME280;29153;42.696;23.218;2023-04-25T08:45:22;93579.95;;;18.32;65.86
43553;BME280;29153;42.696;23.218;2023-04-25T08:47:52;93590.45;;;18.90;61.89
43553;BME280;29153;42.696;23.218;2023-04-25T08:50:21;93587.51;;;19.45;58.75
43553;BME280;29153;42.696;23.218;2023-04-25T08:52:50;93578.95;;;20.07;61.89
43553;BME280;29153;42.696;23.218;2023-04-25T08:55:20;93586.25;;;20.35;56.22
43553;BME280;29153;42.696;23.218;2023-04-25T08:57:48;93571.80;;;20.79;58.53
43553;BME280;29153;42.696;23.218;2023-04-25T09:00:17;93573.73;;;21.28;59.32
43553;BME280;29153;42.696;23.218;2023-04-25T09:02:46;93573.47;;;21.23;54.75
43553;BME280;29153;42.696;23.218;2023-04-25T09:05:14;93571.62;;;20.92;53.96
43553;BME280;29153;42.696;23.218;2023-04-25T09:07:41;93574.56;;;20.60;57.74
43553;BME280;29153;42.696;23.218;2023-04-25T09:10:09;93574.84;;;20.87;56.80
43553;BME280;29153;42.696;23.218;2023-04-25T09:12:37;93579.60;;;20.62;51.89
43553;BME280;29153;42.696;23.218;2023-04-25T09:15:06;93579.28;;;20.25;55.87
43553;BME280;29153;42.696;23.218;2023-04-25T09:17:34;93582.80;;;19.33;52.89
43553;BME280;29153;42.696;23.218;2023-04-25T09:20:09;93572.24;;;18.74;54.96
43553;BME280;29153;42.696;23.218;2023-04-25T09:22:38;93568.04;;;18.82;55.53
43553;BME280;29153;42.696;23.218;2023-04-25T09:25:10;93561.48;;;18.89;56.12
43553;BME280;29153;42.696;23.218;2023-04-25T09:27:49;93558.11;;;19.27;58.56
43553;BME280;29153;42.696;23.218;2023-04-25T09:30:18;93569.09;;;18.87;52.30
43553;BME280;29153;42.696;23.218;2023-04-25T09:32:47;93558.69;;;19.01;57.73
43553;BME280;29153;42.696;23.218;2023-04-25T09:35:25;93558.80;;;19.15;56.33
43553;BME280;29153;42.696;23.218;2023-04-25T09:37:55;93559.95;;;19.23;55.86
43553;BME280;29153;42.696;23.218;2023-04-25T09:40:22;93561.89;;;19.42;51.87
43553;BME280;29153;42.696;23.218;2023-04-25T09:42:50;93562.94;;;19.72;55.84
43553;BME280;29153;42.696;23.218;2023-04-25T09:45:17;93565.73;;;20.08;53.47
43553;BME280;29153;42.696;23.218;2023-04-25T09:47:45;93569.78;;;20.73;49.59
43553;BME280;29153;42.696;23.218;2023-04-25T09:50:17;93569.75;;;20.60;48.78
43553;BME280;29153;42.696;23.218;2023-04-25T09:52:45;93569.77;;;20.50;46.76
43553;BME280;29153;42.696;23.218;2023-04-25T09:55:13;93571.66;;;20.59;55.36
43553;BME280;29153;42.696;23.218;2023-04-25T09:57:41;93555.04;;;20.31;53.43
43553;BME280;29153;42.696;23.218;2023-04-25T10:00:09;93560.84;;;20.14;59.38
43553;BME280;29153;42.696;23.218;2023-04-25T10:02:42;93558.69;;;19.71;50.43
43553;BME280;29153;42.696;23.218;2023-04-25T10:05:11;93563.80;;;19.06;58.19
43553;BME280;29153;42.696;23.218;2023-04-25T10:07:39;93568.95;;;18.64;58.62
43553;BME280;29153;42.696;23.218;2023-04-25T10:10:08;93576.92;;;18.61;52.17
43553;BME280;29153;42.696;23.218;2023-04-25T10:12:36;93569.69;;;18.49;53.20
43553;BME280;29153;42.696;23.218;2023-04-25T10:15:06;93563.13;;;18.47;55.95
43553;BME280;29153;42.696;23.218;2023-04-25T10:17:36;93565.33;;;18.51;57.34
43553;BME280;29153;42.696;23.218;2023-04-25T10:20:04;93560.73;;;18.83;55.63
43553;BME280;29153;42.696;23.218;2023-04-25T10:22:39;93558.80;;;19.15;54.43
43553;BME280;29153;42.696;23.218;2023-04-25T10:25:08;93559.98;;;19.17;54.42
43553;BME280;29153;42.696;23.218;2023-04-25T10:27:38;93558.91;;;19.02;53.65
43553;BME280;29153;42.696;23.218;2023-04-25T10:30:09;93566.77;;;18.86;48.90
43553;BME280;29153;42.696;23.218;2023-04-25T10:32:38;93559.02;;;18.43;49.97
43553;BME280;29153;42.696;23.218;2023-04-25T10:35:17;93573.53;;;18.27;48.66
43553;BME280;29153;42.696;23.218;2023-04-25T10:38:31;93567.25;;;17.85;50.69
43553;BME280;29153;42.696;23.218;2023-04-25T10:40:33;93553.73;;;17.60;52.84
43553;BME280;29153;42.696;23.218;2023-04-25T10:43:43;93562.75;;;17.95;53.70
43553;BME280;29153;42.696;23.218;2023-04-25T10:45:50;93566.88;;;17.93;51.54
43553;BME280;29153;42.696;23.218;2023-04-25T10:48:03;93552.81;;;18.17;57.29
43553;BME280;29153;42.696;23.218;2023-04-25T10:50:38;93549.55;;;18.40;58.01
43553;BME280;29153;42.696;23.218;2023-04-25T10:53:16;93554.55;;;18.41;51.66
43553;BME280;29153;42.696;23.218;2023-04-25T10:55:50;93550.94;;;18.28;52.48
43553;BME280;29153;42.696;23.218;2023-04-25T10:58:21;93535.94;;;18.17;55.18
43553;BME280;29153;42.696;23.218;2023-04-25T11:00:50;93539.54;;;18.52;53.33
43553;BME280;29153;42.696;23.218;2023-04-25T11:03:17;93536.88;;;18.62;54.57
43553;BME280;29153;42.696;23.218;2023-04-25T11:05:47;93536.05;;;18.68;54.00
43553;BME280;29153;42.696;23.218;2023-04-25T11:08:17;93503.24;;;18.11;52.11
43553;BME280;29153;42.696;23.218;2023-04-25T11:10:47;93539.55;;;18.31;51.69
43553;BME280;29153;42.696;23.218;2023-04-25T11:13:15;93534.31;;;18.06;53.30
43553;BME280;29153;42.696;23.218;2023-04-25T11:15:43;93530.85;;;17.84;55.15
43553;BME280;29153;42.696;23.218;2023-04-25T11:18:15;93525.25;;;17.89;56.99
43553;BME280;29153;42.696;23.218;2023-04-25T11:20:42;93535.28;;;17.24;56.08
43553;BME280;29153;42.696;23.218;2023-04-25T11:23:10;93531.89;;;17.00;59.21
43553;BME280;29153;42.696;23.218;2023-04-25T11:25:38;93528.01;;;16.55;62.33
43553;BME280;29153;42.696;23.218;2023-04-25T11:28:06;93529.78;;;16.45;65.10
43553;BME280;29153;42.696;23.218;2023-04-25T11:30:33;93537.77;;;16.14;66.15
43553;BME280;29153;42.696;23.218;2023-04-25T11:33:01;93546.45;;;15.72;64.32
43553;BME280;29153;42.696;23.218;2023-04-25T11:35:29;93551.63;;;15.42;63.48
43553;BME280;29153;42.696;23.218;2023-04-25T11:37:57;93550.86;;;15.00;64.71
43553;BME280;29153;42.696;23.218;2023-04-25T11:40:24;93549.77;;;14.86;69.22
43553;BME280;29153;42.696;23.218;2023-04-25T11:42:52;93542.17;;;14.68;70.96
43553;BME280;29153;42.696;23.218;2023-04-25T11:45:19;93519.76;;;14.69;77.75
43553;BME280;29153;42.696;23.218;2023-04-25T11:47:47;93512.05;;;14.76;81.23
43553;BME280;29153;42.696;23.218;2023-04-25T11:50:16;93505.14;;;15.10;83.34
43553;BME280;29153;42.696;23.218;2023-04-25T11:52:45;93500.41;;;15.48;82.12
43553;BME280;29153;42.696;23.218;2023-04-25T11:55:20;93502.45;;;15.58;77.20
43553;BME280;29153;42.696;23.218;2023-04-25T11:57:51;93510.44;;;15.84;75.06
43553;BME280;29153;42.696;23.218;2023-04-25T12:00:20;93512.02;;;15.98;73.74
43553;BME280;29153;42.696;23.218;2023-04-25T12:02:53;93504.81;;;16.34;72.37
43553;BME280;29153;42.696;23.218;2023-04-25T12:05:24;93511.98;;;16.85;70.93
43553;BME280;29153;42.696;23.218;2023-04-25T12:07:52;93500.82;;;16.83;70.61
43553;BME280;29153;42.696;23.218;2023-04-25T12:10:21;93495.44;;;17.01;72.85
43553;BME280;29153;42.696;23.218;2023-04-25T12:12:49;93504.73;;;16.86;68.81
43553;BME280;29153;42.696;23.218;2023-04-25T12:15:18;93499.25;;;16.94;69.62
43553;BME280;29153;42.696;23.218;2023-04-25T12:17:47;93509.92;;;17.06;65.38
43553;BME280;29153;42.696;23.218;2023-04-25T12:20:17;93527.75;;;17.14;65.66
43553;BME280;29153;42.696;23.218;2023-04-25T12:22:47;93571.61;;;17.50;68.41
43553;BME280;29153;42.696;23.218;2023-04-25T12:25:33;93582.80;;;16.49;66.33
43553;BME280;29153;42.696;23.218;2023-04-25T12:27:45;93570.75;;;15.59;68.97
43553;BME280;29153;42.696;23.218;2023-04-25T12:30:13;93573.28;;;15.14;72.37
43553;BME280;29153;42.696;23.218;2023-04-25T12:32:40;93574.28;;;14.80;73.76
43553;BME280;29153;42.696;23.218;2023-04-25T12:35:08;93562.66;;;14.46;75.23
43553;BME280;29153;42.696;23.218;2023-04-25T12:40:58;93562.75;;;13.97;80.08
43553;BME280;29153;42.696;23.218;2023-04-25T12:43:26;93545.10;;;13.76;83.12
43553;BME280;29153;42.696;23.218;2023-04-25T12:45:55;93549.77;;;13.55;83.63
43553;BME280;29153;42.696;23.218;2023-04-25T12:48:23;93551.70;;;13.44;86.68
43553;BME280;29153;42.696;23.218;2023-04-25T12:50:51;93562.45;;;13.33;90.49
43553;BME280;29153;42.696;23.218;2023-04-25T12:53:21;93571.59;;;13.12;92.10
43553;BME280;29153;42.696;23.218;2023-04-25T12:55:51;93574.03;;;12.83;91.98